Time;durP1;ratioP1;P1;durP2;ratioP2;P2;SDS_P1;SDS_P2;PMS_P1;PMS_P2;Temp;Humidity;BMP_temperature;BMP_pressure;BME280_temperature;BME280_humidity;BME280_pressure;Samples;Min_cycle;Max_cycle;Signal;HPM_P1;HPM_P2
2022/04/24 00:02:12;;;;;;;2.22;1.60;;;14.70;48.40;;;;;;5107769;28;20032;-61
2022/04/24 00:04:38;;;;;;;1.63;1.52;;;14.70;48.60;;;;;;5106364;28;20206;-61
2022/04/24 00:07:05;;;;;;;1.50;1.35;;;14.60;48.60;;;;;;5109372;28;20187;-60
2022/04/24 00:09:31;;;;;;;1.75;1.33;;;14.60;48.80;;;;;;5107137;28;20038;-65
2022/04/24 00:11:57;;;;;;;1.40;1.30;;;14.60;49.00;;;;;;5108728;28;20023;-65
2022/04/24 00:14:23;;;;;;;1.77;1.05;;;14.50;49.10;;;;;;5106669;28;20077;-60
2022/04/24 00:16:49;;;;;;;1.55;1.05;;;14.50;49.20;;;;;;5109034;28;20031;-65
2022/04/24 00:19:18;;;;;;;1.92;1.50;;;14.50;49.30;;;;;;5110392;28;20055;-65
2022/04/24 00:21:45;;;;;;;2.05;1.50;;;14.40;49.30;;;;;;5112782;28;20518;-66
2022/04/24 00:24:10;;;;;;;1.65;1.35;;;14.40;49.40;;;;;;5104783;28;20506;-65
2022/04/24 00:26:36;;;;;;;1.90;1.60;;;14.40;49.60;;;;;;5090791;28;20039;-60
2022/04/24 00:29:02;;;;;;;1.98;1.35;;;14.30;49.70;;;;;;5103243;28;20037;-60
2022/04/24 00:31:28;;;;;;;1.40;1.30;;;14.30;49.80;;;;;;5098282;28;20020;-66
2022/04/24 00:33:54;;;;;;;1.42;1.20;;;14.20;49.90;;;;;;5100656;28;20089;-66
2022/04/24 00:36:20;;;;;;;2.03;1.35;;;14.20;50.10;;;;;;5092088;28;20169;-66
2022/04/24 00:38:45;;;;;;;1.45;1.35;;;14.10;50.10;;;;;;5106475;28;20114;-66
2022/04/24 00:41:11;;;;;;;1.75;1.25;;;14.10;50.30;;;;;;5103077;28;20024;-60
2022/04/24 00:43:37;;;;;;;1.58;1.38;;;14.00;50.40;;;;;;5102581;28;20065;-60
2022/04/24 00:46:14;;;;;;;1.45;1.35;;;14.00;50.60;;;;;;5093005;28;20486;-60
2022/04/24 00:48:42;;;;;;;2.13;1.80;;;13.90;50.60;;;;;;5102268;27;20031;-60
2022/04/24 00:51:08;;;;;;;2.83;1.92;;;13.90;50.90;;;;;;5105863;28;20099;-60
2022/04/24 00:53:35;;;;;;;1.27;1.17;;;13.90;51.10;;;;;;5107058;28;20031;-60
2022/04/24 00:56:01;;;;;;;1.77;1.67;;;13.90;51.10;;;;;;5111245;28;20103;-65
2022/04/24 00:58:27;;;;;;;1.40;1.30;;;13.90;51.20;;;;;;5111593;28;20027;-60
2022/04/24 01:00:53;;;;;;;2.75;2.05;;;13.80;51.40;;;;;;5112195;28;20022;-65
2022/04/24 01:03:19;;;;;;;2.33;1.73;;;13.80;51.40;;;;;;5108279;28;20073;-65
2022/04/24 01:05:45;;;;;;;1.77;1.60;;;13.70;51.70;;;;;;5110715;28;20019;-65
2022/04/24 01:08:11;;;;;;;2.72;1.73;;;13.70;51.90;;;;;;5111403;28;20023;-65
2022/04/24 01:10:40;;;;;;;2.40;1.80;;;13.70;52.10;;;;;;5110836;28;20035;-65
2022/04/24 01:13:06;;;;;;;2.60;2.05;;;13.70;52.20;;;;;;5090605;28;20039;-65
2022/04/24 01:15:34;;;;;;;2.00;1.70;;;13.60;52.50;;;;;;5106332;28;20076;-65
2022/04/24 01:18:01;;;;;;;3.22;1.58;;;13.60;52.70;;;;;;5111542;28;20032;-65
2022/04/24 01:20:27;;;;;;;2.03;1.60;;;13.60;52.70;;;;;;5109026;28;20038;-65
2022/04/24 01:22:53;;;;;;;3.88;1.70;;;13.60;52.80;;;;;;5111365;28;20106;-66
2022/04/24 01:25:19;;;;;;;1.60;1.48;;;13.60;53.10;;;;;;5107665;28;20091;-65
2022/04/24 01:27:45;;;;;;;3.50;1.73;;;13.60;53.20;;;;;;5101008;28;20103;-60
2022/04/24 01:30:11;;;;;;;3.40;1.63;;;13.60;53.30;;;;;;5111653;28;20048;-60
2022/04/24 01:32:38;;;;;;;2.80;1.25;;;13.50;53.50;;;;;;5107295;28;20455;-65
2022/04/24 01:35:07;;;;;;;3.35;1.65;;;13.50;53.80;;;;;;5096985;28;20023;-64
2022/04/24 01:37:33;;;;;;;3.97;2.30;;;13.40;53.90;;;;;;5111320;28;20028;-65
2022/04/24 01:39:58;;;;;;;2.03;1.40;;;13.40;54.00;;;;;;5110647;28;20020;-65
2022/04/24 01:42:24;;;;;;;1.77;1.35;;;13.40;54.10;;;;;;5109686;28;20363;-66
2022/04/24 01:44:50;;;;;;;5.40;2.90;;;13.40;54.20;;;;;;5107483;28;20059;-65
2022/04/24 01:47:16;;;;;;;2.20;1.70;;;13.40;54.50;;;;;;5109933;28;20027;-65
2022/04/24 01:49:42;;;;;;;1.58;1.30;;;13.30;54.80;;;;;;5091685;28;20027;-60
2022/04/24 01:52:08;;;;;;;2.67;1.52;;;13.30;54.80;;;;;;5110786;28;20447;-59
2022/04/24 01:54:34;;;;;;;4.25;2.10;;;13.30;54.90;;;;;;5108129;28;20530;-65
2022/04/24 01:56:59;;;;;;;2.72;1.73;;;13.20;55.30;;;;;;5110918;28;20051;-66
2022/04/24 01:59:25;;;;;;;3.30;1.83;;;13.20;55.30;;;;;;5108287;28;20035;-60
2022/04/24 02:01:51;;;;;;;2.80;1.60;;;13.20;55.40;;;;;;5110728;28;20028;-60
2022/04/24 02:04:22;;;;;;;2.00;1.60;;;13.20;55.30;;;;;;5108980;28;20028;-61
2022/04/24 02:06:49;;;;;;;2.00;1.30;;;13.10;55.60;;;;;;5110454;28;20051;-65
2022/04/24 02:09:15;;;;;;;2.38;2.15;;;13.10;55.70;;;;;;5104573;28;20032;-65
2022/04/24 02:11:40;;;;;;;1.83;1.48;;;13.10;56.00;;;;;;5090541;28;20028;-65
2022/04/24 02:14:09;;;;;;;3.25;2.20;;;13.10;56.00;;;;;;5106557;28;20076;-65
2022/04/24 02:16:34;;;;;;;2.45;2.15;;;13.00;56.20;;;;;;5093181;28;20036;-65
2022/04/24 02:19:06;;;;;;;2.42;1.73;;;13.00;56.90;;;;;;5109269;28;20027;-65
2022/04/24 02:21:32;;;;;;;2.75;1.95;;;13.00;56.70;;;;;;5106843;28;20035;-66
2022/04/24 02:23:57;;;;;;;2.60;1.75;;;12.90;56.70;;;;;;5092265;28;20032;-65
2022/04/24 02:26:23;;;;;;;3.58;1.80;;;12.90;56.90;;;;;;5089218;28;20034;-65
2022/04/24 02:28:49;;;;;;;2.08;1.60;;;12.90;56.90;;;;;;5084413;28;20239;-66
2022/04/24 02:31:14;;;;;;;1.98;1.55;;;12.90;57.10;;;;;;5097219;28;20052;-65
2022/04/24 02:33:40;;;;;;;2.75;1.40;;;12.90;57.20;;;;;;5099818;28;20032;-65
2022/04/24 02:36:06;;;;;;;1.92;1.50;;;12.80;57.20;;;;;;5106659;28;20036;-61
2022/04/24 02:38:31;;;;;;;2.65;2.10;;;12.80;57.50;;;;;;5089580;28;20019;-61
2022/04/24 02:40:58;;;;;;;1.95;1.38;;;12.80;57.60;;;;;;5092696;28;20031;-60
2022/04/24 02:43:24;;;;;;;4.05;1.40;;;12.70;57.70;;;;;;5097504;28;20521;-61
2022/04/24 02:45:50;;;;;;;1.42;1.33;;;12.70;57.80;;;;;;5107853;28;20121;-60
2022/04/24 02:48:15;;;;;;;1.73;1.63;;;12.60;58.00;;;;;;5108746;28;20065;-60
2022/04/24 02:50:41;;;;;;;1.92;1.60;;;12.60;58.20;;;;;;5107321;28;20039;-60
2022/04/24 02:53:07;;;;;;;2.45;1.77;;;12.60;58.10;;;;;;5109417;28;20059;-61
2022/04/24 02:55:33;;;;;;;1.85;1.73;;;12.60;58.40;;;;;;5108438;28;20479;-60
2022/04/24 02:57:59;;;;;;;1.52;1.35;;;12.50;58.50;;;;;;5110473;28;20020;-60
2022/04/24 03:00:25;;;;;;;1.98;1.48;;;12.50;58.50;;;;;;5107930;28;20032;-61
2022/04/24 03:02:51;;;;;;;1.83;1.67;;;12.40;58.70;;;;;;5108271;28;20080;-65
2022/04/24 03:05:22;;;;;;;1.95;1.63;;;12.40;58.90;;;;;;5109027;28;20032;-66
2022/04/24 03:07:48;;;;;;;3.08;1.42;;;12.40;58.90;;;;;;5108840;28;20023;-65
2022/04/24 03:10:16;;;;;;;2.10;1.42;;;12.40;59.00;;;;;;5109104;28;20296;-65
2022/04/24 03:12:43;;;;;;;1.30;1.20;;;12.30;59.00;;;;;;5108101;28;20046;-65
2022/04/24 03:15:10;;;;;;;2.88;1.88;;;12.30;59.10;;;;;;5109699;28;20031;-65
2022/04/24 03:17:40;;;;;;;1.33;1.23;;;12.30;59.00;;;;;;5110326;28;20027;-66
2022/04/24 03:20:08;;;;;;;2.05;1.73;;;12.30;59.10;;;;;;5107008;28;20035;-65
2022/04/24 03:22:37;;;;;;;1.92;1.73;;;12.20;59.20;;;;;;5112820;27;20050;-65
2022/04/24 03:25:05;;;;;;;2.17;1.55;;;12.20;59.40;;;;;;5120807;27;20031;-60
2022/04/24 03:27:31;;;;;;;1.45;1.35;;;12.20;59.40;;;;;;5109641;28;20031;-65
2022/04/24 03:29:57;;;;;;;1.85;1.50;;;12.20;59.30;;;;;;5106681;28;20493;-61
2022/04/24 03:32:23;;;;;;;2.10;1.92;;;12.20;59.30;;;;;;5108067;28;20063;-60
2022/04/24 03:34:50;;;;;;;2.63;1.20;;;12.10;59.40;;;;;;5107240;28;20482;-66
2022/04/24 03:37:16;;;;;;;3.10;1.73;;;12.10;59.40;;;;;;5109491;28;20032;-65
2022/04/24 03:39:41;;;;;;;2.13;1.40;;;12.10;59.50;;;;;;5107274;28;20364;-65
2022/04/24 03:42:07;;;;;;;4.22;1.42;;;12.10;59.60;;;;;;5109216;28;20438;-65
2022/04/24 03:44:34;;;;;;;1.88;1.60;;;12.00;59.50;;;;;;5106580;28;20482;-61
2022/04/24 03:46:59;;;;;;;1.85;1.67;;;12.00;59.60;;;;;;5108977;28;20024;-65
2022/04/24 03:49:28;;;;;;;1.30;1.20;;;11.90;59.60;;;;;;5106973;28;20039;-65
2022/04/24 03:51:54;;;;;;;1.65;1.25;;;11.90;59.70;;;;;;5107798;28;20494;-61
2022/04/24 03:54:20;;;;;;;1.98;1.65;;;11.90;59.70;;;;;;5089335;28;21431;-60
2022/04/24 03:56:46;;;;;;;3.38;1.80;;;11.90;59.80;;;;;;5107589;28;20047;-65
2022/04/24 03:59:12;;;;;;;5.30;1.40;;;11.90;60.00;;;;;;5107463;28;20490;-60
2022/04/24 04:01:37;;;;;;;3.65;2.33;;;11.80;60.00;;;;;;5106734;28;20488;-65
2022/04/24 04:04:03;;;;;;;1.60;1.13;;;11.80;59.90;;;;;;5108511;28;20470;-65
2022/04/24 04:06:29;;;;;;;2.83;1.13;;;11.80;59.90;;;;;;5099951;28;20071;-65
2022/04/24 04:08:55;;;;;;;5.72;1.50;;;11.80;60.00;;;;;;5092972;28;20447;-65
2022/04/24 04:11:20;;;;;;;3.13;1.30;;;11.80;60.10;;;;;;5105858;28;20123;-65
2022/04/24 04:13:46;;;;;;;1.33;1.23;;;11.70;60.00;;;;;;5102952;28;20023;-60
2022/04/24 04:16:12;;;;;;;3.85;1.73;;;11.70;60.10;;;;;;5104495;28;20034;-60
2022/04/24 04:18:38;;;;;;;2.05;1.48;;;11.70;60.10;;;;;;5100420;28;20020;-60
2022/04/24 04:21:04;;;;;;;1.58;1.48;;;11.70;60.10;;;;;;5105981;28;20415;-60
2022/04/24 04:23:30;;;;;;;3.22;1.40;;;11.70;60.20;;;;;;5101191;28;20020;-64
2022/04/24 04:25:56;;;;;;;1.98;1.15;;;11.70;60.20;;;;;;5105244;28;20486;-61
2022/04/24 04:28:22;;;;;;;1.00;0.90;;;11.60;60.10;;;;;;5104747;28;20031;-65
2022/04/24 04:30:48;;;;;;;1.20;1.02;;;11.60;60.20;;;;;;5105684;28;20398;-65
2022/04/24 04:33:14;;;;;;;1.55;1.20;;;11.60;60.20;;;;;;5103934;28;20055;-65
2022/04/24 04:35:40;;;;;;;3.90;1.58;;;11.50;60.30;;;;;;5104526;28;20055;-60
2022/04/24 04:38:05;;;;;;;1.90;1.70;;;11.50;60.30;;;;;;5106803;28;20041;-65
2022/04/24 04:40:33;;;;;;;1.25;1.10;;;11.50;60.50;;;;;;5106884;28;20350;-65
2022/04/24 04:42:59;;;;;;;1.50;1.40;;;11.40;60.40;;;;;;5105060;28;20028;-65
2022/04/24 04:45:25;;;;;;;1.45;1.17;;;11.40;60.60;;;;;;5106681;28;20099;-65
2022/04/24 04:47:51;;;;;;;4.43;1.40;;;11.40;60.60;;;;;;5108009;28;20101;-65
2022/04/24 04:50:17;;;;;;;1.30;1.10;;;11.30;60.70;;;;;;5106958;28;20106;-65
2022/04/24 04:52:44;;;;;;;1.75;0.88;;;11.30;60.80;;;;;;5107040;28;20051;-65
2022/04/24 04:55:09;;;;;;;5.57;1.52;;;11.30;60.70;;;;;;5107098;28;20085;-65
2022/04/24 04:57:35;;;;;;;1.80;1.27;;;11.30;60.90;;;;;;5106414;28;20055;-65
2022/04/24 05:00:05;;;;;;;1.05;1.05;;;11.30;60.90;;;;;;5108127;28;20122;-60
2022/04/24 05:02:31;;;;;;;4.82;1.55;;;11.30;61.00;;;;;;5105526;28;20062;-60
2022/04/24 05:05:00;;;;;;;1.55;1.42;;;11.30;60.90;;;;;;5093251;28;20031;-60
2022/04/24 05:07:25;;;;;;;1.88;1.40;;;11.20;61.00;;;;;;5110681;28;20066;-60
2022/04/24 05:09:51;;;;;;;1.85;1.50;;;11.20;61.00;;;;;;5110244;28;20031;-60
2022/04/24 05:12:17;;;;;;;2.05;1.50;;;11.20;61.00;;;;;;5110320;28;20611;-60
2022/04/24 05:14:43;;;;;;;1.42;1.27;;;11.20;61.00;;;;;;5108645;28;20451;-61
2022/04/24 05:17:08;;;;;;;1.83;1.20;;;11.20;61.00;;;;;;5110465;28;20127;-60
2022/04/24 05:19:34;;;;;;;7.00;1.42;;;11.20;61.00;;;;;;5110076;28;20750;-60
2022/04/24 05:22:00;;;;;;;1.33;1.20;;;11.30;61.20;;;;;;5108962;28;20035;-61
2022/04/24 05:24:25;;;;;;;1.55;0.95;;;11.30;61.10;;;;;;5109814;28;20347;-60
2022/04/24 05:26:51;;;;;;;1.27;1.10;;;11.20;61.00;;;;;;5111754;28;20066;-61
2022/04/24 05:29:17;;;;;;;1.85;1.25;;;11.30;61.00;;;;;;5107048;27;20443;-65
2022/04/24 05:31:43;;;;;;;1.45;1.27;;;11.20;60.90;;;;;;5108277;27;20028;-65
2022/04/24 05:34:08;;;;;;;1.80;1.38;;;11.20;60.90;;;;;;5111006;27;20520;-65
2022/04/24 05:36:34;;;;;;;1.45;1.23;;;11.20;60.90;;;;;;5107011;28;20080;-60
2022/04/24 05:39:00;;;;;;;1.52;1.42;;;11.20;60.90;;;;;;5110417;28;20492;-60
2022/04/24 05:41:26;;;;;;;2.10;1.77;;;11.20;61.00;;;;;;5108808;28;20470;-60
2022/04/24 05:43:51;;;;;;;3.30;1.83;;;11.30;60.90;;;;;;5105164;28;20466;-61
2022/04/24 05:46:17;;;;;;;1.85;1.35;;;11.30;60.80;;;;;;5108301;28;20035;-61
2022/04/24 05:48:43;;;;;;;4.35;1.95;;;11.30;60.70;;;;;;5107792;28;20027;-61
2022/04/24 05:51:08;;;;;;;1.38;1.27;;;11.40;60.70;;;;;;5108632;28;20127;-61
2022/04/24 05:53:34;;;;;;;3.08;1.40;;;11.40;60.60;;;;;;5108085;28;20035;-68
2022/04/24 05:56:00;;;;;;;1.90;1.30;;;11.30;60.40;;;;;;5091375;28;20043;-67
2022/04/24 05:58:25;;;;;;;1.45;1.08;;;11.30;60.40;;;;;;5103009;28;20028;-61
2022/04/24 06:00:51;;;;;;;1.48;1.38;;;11.30;60.40;;;;;;5105063;28;20036;-66
2022/04/24 06:03:16;;;;;;;1.40;1.23;;;11.40;60.40;;;;;;5107591;28;20047;-66
2022/04/24 06:05:45;;;;;;;1.67;1.05;;;11.40;60.40;;;;;;5109242;28;20161;-66
2022/04/24 06:08:11;;;;;;;2.28;2.00;;;11.40;60.30;;;;;;5108611;28;20028;-66
2022/04/24 06:10:37;;;;;;;1.13;1.02;;;11.40;60.30;;;;;;5107065;28;20046;-66
2022/04/24 06:13:02;;;;;;;2.92;1.63;;;11.50;60.20;;;;;;5106909;28;20131;-65
2022/04/24 06:15:28;;;;;;;2.97;1.10;;;11.50;60.10;;;;;;5106797;28;20043;-65
2022/04/24 06:17:57;;;;;;;2.28;0.93;;;11.60;60.10;;;;;;5108816;28;20549;-65
2022/04/24 06:20:24;;;;;;;1.52;1.05;;;11.60;60.00;;;;;;5108304;28;20020;-66
2022/04/24 06:22:57;;;;;;;1.27;1.00;;;11.60;60.00;;;;;;5106012;28;20553;-66
2022/04/24 06:25:34;;;;;;;1.15;1.02;;;11.60;60.50;;;;;;5108002;28;20019;-60
2022/04/24 06:28:01;;;;;;;1.70;1.17;;;11.70;59.90;;;;;;5106751;28;20034;-60
2022/04/24 06:30:28;;;;;;;1.27;1.13;;;11.70;59.70;;;;;;5107625;28;20034;-61
2022/04/24 06:32:56;;;;;;;1.33;1.02;;;11.80;59.70;;;;;;5110281;27;20038;-61
2022/04/24 06:35:22;;;;;;;1.25;1.15;;;11.70;59.50;;;;;;5106591;28;20478;-60
2022/04/24 06:37:53;;;;;;;0.73;0.73;;;11.80;59.60;;;;;;5108163;28;20028;-60
2022/04/24 06:40:19;;;;;;;1.42;1.15;;;11.80;59.50;;;;;;5107986;28;20790;-60
2022/04/24 06:42:59;;;;;;;1.60;1.30;;;11.90;59.40;;;;;;5108483;28;20011;-60
2022/04/24 06:45:30;;;;;;;1.17;1.08;;;11.90;59.40;;;;;;5107988;28;20023;-61
2022/04/24 06:48:00;;;;;;;1.42;0.98;;;12.00;59.40;;;;;;5103674;28;20032;-60
2022/04/24 06:50:27;;;;;;;2.05;1.17;;;12.00;59.30;;;;;;5109010;28;20039;-61
2022/04/24 06:52:57;;;;;;;1.10;1.00;;;12.10;59.20;;;;;;5107080;28;20027;-65
2022/04/24 06:55:23;;;;;;;1.02;0.90;;;12.10;59.10;;;;;;5105458;27;20027;-60
2022/04/24 06:57:51;;;;;;;0.82;0.82;;;12.10;59.10;;;;;;5096927;27;20036;-60
2022/04/24 07:00:19;;;;;;;1.70;1.38;;;12.20;58.90;;;;;;5101602;28;20031;-60
2022/04/24 07:02:45;;;;;;;1.70;1.08;;;12.20;58.80;;;;;;5095746;28;20031;-65
2022/04/24 07:05:11;;;;;;;0.80;0.80;;;12.20;58.90;;;;;;5104295;28;20028;-65
2022/04/24 07:07:36;;;;;;;3.03;1.60;;;12.30;58.80;;;;;;5100289;28;20103;-65
2022/04/24 07:10:03;;;;;;;1.67;1.35;;;12.40;58.70;;;;;;5098931;28;20935;-59
2022/04/24 07:12:29;;;;;;;1.65;1.45;;;12.40;58.60;;;;;;5106087;28;20504;-59
2022/04/24 07:14:56;;;;;;;1.42;1.33;;;12.50;58.50;;;;;;5108452;27;20835;-59
2022/04/24 07:17:21;;;;;;;1.48;1.23;;;12.50;58.60;;;;;;5099623;28;20044;-64
2022/04/24 07:19:48;;;;;;;1.92;1.20;;;12.60;58.50;;;;;;5097798;28;20046;-64
2022/04/24 07:22:16;;;;;;;2.08;1.30;;;12.60;58.40;;;;;;5105401;28;20116;-65
2022/04/24 07:24:42;;;;;;;3.80;1.25;;;12.70;58.20;;;;;;5094109;28;20122;-59
2022/04/24 07:27:07;;;;;;;3.55;1.60;;;12.70;58.00;;;;;;5103530;28;20460;-64
2022/04/24 07:29:33;;;;;;;1.55;1.13;;;12.80;58.00;;;;;;5104869;28;20549;-64
2022/04/24 07:31:59;;;;;;;1.38;1.13;;;12.80;58.10;;;;;;5097372;28;20096;-65
2022/04/24 07:34:24;;;;;;;3.58;1.45;;;12.90;58.00;;;;;;5104372;28;20035;-65
2022/04/24 07:36:50;;;;;;;1.05;0.98;;;13.00;57.80;;;;;;5107850;28;20123;-65
2022/04/24 07:39:16;;;;;;;1.90;1.30;;;13.00;57.60;;;;;;5107010;28;20487;-66
2022/04/24 07:41:41;;;;;;;2.35;1.63;;;13.10;57.40;;;;;;5106034;28;20035;-65
2022/04/24 07:44:07;;;;;;;2.53;1.33;;;13.10;57.20;;;;;;5106949;28;20597;-65
2022/04/24 07:46:34;;;;;;;3.60;1.83;;;13.20;57.30;;;;;;5105684;28;20379;-65
2022/04/24 07:49:00;;;;;;;1.73;1.05;;;13.20;57.10;;;;;;5101778;28;20036;-66
2022/04/24 07:51:26;;;;;;;1.10;1.00;;;13.30;57.10;;;;;;5107429;28;20023;-65
2022/04/24 07:53:51;;;;;;;2.42;1.50;;;13.40;56.80;;;;;;5104377;28;20024;-66
2022/04/24 07:56:17;;;;;;;1.05;0.95;;;13.40;56.80;;;;;;5101338;28;20562;-59
2022/04/24 07:58:43;;;;;;;1.83;1.30;;;13.50;56.80;;;;;;5104754;28;20577;-60
2022/04/24 08:01:11;;;;;;;2.53;1.45;;;13.60;56.60;;;;;;5104690;28;20111;-59
2022/04/24 08:03:36;;;;;;;3.83;1.30;;;13.60;56.60;;;;;;5103216;28;20722;-59
2022/04/24 08:06:02;;;;;;;1.20;1.10;;;13.70;56.50;;;;;;5104116;28;20120;-59
2022/04/24 08:08:28;;;;;;;3.13;1.60;;;13.80;56.40;;;;;;5104108;28;20483;-59
2022/04/24 08:10:56;;;;;;;1.33;1.23;;;13.80;55.90;;;;;;5106960;28;20027;-59
2022/04/24 08:13:22;;;;;;;2.47;1.48;;;13.90;56.00;;;;;;5103355;28;20185;-61
2022/04/24 08:15:49;;;;;;;0.68;0.68;;;13.90;55.90;;;;;;5105586;28;20024;-59
2022/04/24 08:18:16;;;;;;;2.17;1.50;;;14.00;55.90;;;;;;5105174;28;20099;-61
2022/04/24 08:20:42;;;;;;;1.42;1.33;;;14.10;55.70;;;;;;5089132;28;20063;-61
2022/04/24 08:23:10;;;;;;;2.20;1.60;;;14.20;55.70;;;;;;5107270;28;20112;-60
2022/04/24 08:25:36;;;;;;;2.10;1.75;;;14.30;55.60;;;;;;5105631;28;20180;-60
2022/04/24 08:28:08;;;;;;;3.72;1.40;;;14.40;55.30;;;;;;5095387;28;20070;-65
2022/04/24 08:30:36;;;;;;;2.80;1.50;;;14.50;55.30;;;;;;5100727;28;20019;-65
2022/04/24 08:33:02;;;;;;;1.27;1.20;;;14.50;55.10;;;;;;5098391;28;20495;-65
2022/04/24 08:35:29;;;;;;;1.50;1.23;;;14.60;55.10;;;;;;5099823;28;20012;-65
2022/04/24 08:37:54;;;;;;;2.15;1.23;;;14.70;54.80;;;;;;5104579;28;20031;-65
2022/04/24 08:40:24;;;;;;;1.42;1.33;;;14.70;54.50;;;;;;5108472;28;20116;-65
2022/04/24 08:42:52;;;;;;;1.92;1.45;;;14.80;54.50;;;;;;5099887;28;20122;-60
2022/04/24 08:45:20;;;;;;;1.45;1.35;;;14.80;54.30;;;;;;5111636;28;20053;-59
2022/04/24 08:47:46;;;;;;;3.05;1.35;;;14.80;54.10;;;;;;5103449;28;20110;-60
2022/04/24 08:50:12;;;;;;;0.73;0.68;;;14.90;54.80;;;;;;5092715;28;21495;-60
2022/04/24 08:52:43;;;;;;;0.65;0.65;;;14.90;54.20;;;;;;5102189;27;20439;-61
2022/04/24 08:55:09;;;;;;;1.67;0.98;;;15.00;54.20;;;;;;5109104;28;20032;-60
2022/04/24 08:57:35;;;;;;;1.75;1.25;;;15.10;54.20;;;;;;5097679;28;20409;-62
2022/04/24 09:00:02;;;;;;;1.92;1.40;;;15.20;54.00;;;;;;5094641;27;20024;-59
2022/04/24 09:02:27;;;;;;;2.08;1.58;;;15.30;53.70;;;;;;5102105;27;20020;-61
2022/04/24 09:08:13;;;;;;;2.42;1.30;;;15.60;53.70;;;;;;5066471;28;20050;-59
2022/04/24 09:10:55;;;;;;;2.22;1.58;;;15.70;53.60;;;;;;5092808;27;20487;-60
2022/04/24 09:13:29;;;;;;;1.42;1.20;;;15.70;53.40;;;;;;5103855;28;20020;-65
2022/04/24 09:15:59;;;;;;;2.03;1.13;;;15.90;53.20;;;;;;5096700;27;20573;-65
2022/04/24 09:18:41;;;;;;;3.58;1.40;;;15.90;53.00;;;;;;5100907;28;20077;-65
2022/04/24 09:21:09;;;;;;;1.20;1.10;;;16.00;52.40;;;;;;5099052;28;20031;-65
2022/04/24 09:23:36;;;;;;;1.88;1.48;;;16.10;52.20;;;;;;5100599;28;20439;-65
2022/04/24 09:26:02;;;;;;;1.30;1.00;;;16.10;52.20;;;;;;5098127;28;20470;-67
2022/04/24 09:28:38;;;;;;;2.22;1.50;;;16.20;52.30;;;;;;5098215;28;20035;-65
2022/04/24 09:31:05;;;;;;;2.70;1.60;;;16.30;51.90;;;;;;5103102;28;20499;-65
2022/04/24 09:33:42;;;;;;;1.73;1.20;;;16.40;51.80;;;;;;5099315;27;20044;-66
2022/04/24 09:36:09;;;;;;;1.67;1.58;;;16.50;51.30;;;;;;5095828;28;20119;-65
2022/04/24 09:38:45;;;;;;;1.30;1.10;;;16.60;51.40;;;;;;5096832;28;20020;-65
2022/04/24 09:41:22;;;;;;;2.47;1.35;;;16.70;51.30;;;;;;5097273;28;20122;-66
2022/04/24 09:43:49;;;;;;;3.33;1.73;;;16.70;50.50;;;;;;5096037;27;20040;-61
2022/04/24 09:46:30;;;;;;;1.98;1.60;;;16.80;50.60;;;;;;5090182;28;20040;-60
2022/04/24 09:49:00;;;;;;;2.13;1.52;;;16.90;50.30;;;;;;5105300;28;20110;-60
2022/04/24 09:51:27;;;;;;;1.55;1.33;;;16.90;50.10;;;;;;5097576;28;20032;-60
2022/04/24 09:54:02;;;;;;;2.95;1.83;;;17.00;50.30;;;;;;5107457;28;20047;-60
2022/04/24 09:56:28;;;;;;;2.40;1.95;;;17.10;49.70;;;;;;5102086;28;20109;-61
2022/04/24 09:58:56;;;;;;;1.60;1.30;;;17.20;50.00;;;;;;5096775;28;20032;-60
2022/04/24 10:01:22;;;;;;;2.97;2.00;;;17.30;49.50;;;;;;5100959;28;20024;-61
2022/04/24 10:03:49;;;;;;;2.03;1.27;;;17.30;49.30;;;;;;5100203;28;20573;-60
2022/04/24 10:06:16;;;;;;;1.42;1.33;;;17.40;49.30;;;;;;5101737;28;20027;-60
2022/04/24 10:08:43;;;;;;;1.65;1.40;;;17.50;49.50;;;;;;5099356;27;20031;-61
2022/04/24 10:11:08;;;;;;;1.45;1.35;;;17.60;49.40;;;;;;5103466;27;20074;-60
2022/04/24 10:13:44;;;;;;;1.55;1.25;;;17.70;48.90;;;;;;5102626;27;20055;-61
2022/04/24 10:16:40;;;;;;;2.13;1.65;;;17.80;47.90;;;;;;5105017;28;20479;-61
2022/04/24 10:19:37;;;;;;;3.03;1.25;;;17.80;47.80;;;;;;5094957;27;20035;-60
2022/04/24 10:22:27;;;;;;;1.60;1.20;;;17.90;47.60;;;;;;5105620;27;20039;-61
2022/04/24 10:25:00;;;;;;;2.05;1.50;;;18.00;47.40;;;;;;5091811;27;20030;-61
2022/04/24 10:27:39;;;;;;;1.00;0.90;;;18.10;47.10;;;;;;5095228;27;20032;-60
2022/04/24 10:30:06;;;;;;;3.25;1.70;;;18.20;47.10;;;;;;5092740;28;20047;-60
2022/04/24 10:32:32;;;;;;;1.80;1.65;;;18.30;46.40;;;;;;5095824;28;20024;-60
2022/04/24 10:34:59;;;;;;;1.58;1.33;;;18.40;46.50;;;;;;5091250;28;20031;-63
2022/04/24 10:37:32;;;;;;;1.88;1.30;;;18.50;46.40;;;;;;5104839;28;20067;-61
2022/04/24 10:40:00;;;;;;;3.22;1.17;;;18.60;46.50;;;;;;5105931;28;20023;-60
2022/04/24 10:42:32;;;;;;;1.55;1.20;;;18.60;45.70;;;;;;5103676;28;20040;-59
2022/04/24 10:45:08;;;;;;;0.88;0.88;;;18.70;45.70;;;;;;5102584;28;20012;-59
2022/04/24 10:47:49;;;;;;;1.05;1.00;;;18.70;45.70;;;;;;5106784;28;20034;-59
2022/04/24 10:50:18;;;;;;;1.35;1.20;;;18.80;45.00;;;;;;5100241;28;20024;-59
2022/04/24 10:52:45;;;;;;;2.38;1.17;;;18.80;44.50;;;;;;5097956;28;20450;-59
2022/04/24 10:55:16;;;;;;;2.25;0.88;;;18.90;45.00;;;;;;5108390;28;20440;-59
2022/04/24 10:57:43;;;;;;;3.08;1.45;;;19.00;45.00;;;;;;5094414;28;20497;-59
2022/04/24 11:00:24;;;;;;;1.52;1.10;;;19.10;44.30;;;;;;5098940;28;20036;-60
2022/04/24 11:02:52;;;;;;;1.55;1.13;;;19.20;44.40;;;;;;5095506;28;20458;-59
2022/04/24 11:05:23;;;;;;;1.50;1.40;;;19.20;44.30;;;;;;5096696;28;20044;-59
2022/04/24 11:08:01;;;;;;;1.70;1.20;;;19.30;43.90;;;;;;5095149;27;20031;-59
2022/04/24 11:10:27;;;;;;;1.05;1.05;;;19.40;43.70;;;;;;5099445;28;20097;-60
2022/04/24 11:12:54;;;;;;;1.13;1.08;;;19.40;43.70;;;;;;5098387;28;20066;-60
2022/04/24 11:15:20;;;;;;;0.88;0.88;;;19.50;43.90;;;;;;5097262;28;20120;-60
2022/04/24 11:17:46;;;;;;;1.35;1.25;;;19.70;43.30;;;;;;5094415;28;20069;-59
2022/04/24 11:20:16;;;;;;;1.48;1.10;;;19.70;43.30;;;;;;5099780;28;20058;-59
2022/04/24 11:22:46;;;;;;;0.90;0.90;;;19.90;43.60;;;;;;5105328;28;20153;-59
2022/04/24 11:25:14;;;;;;;1.42;0.90;;;20.00;43.20;;;;;;5102496;28;20501;-59
2022/04/24 11:27:44;;;;;;;2.15;1.40;;;20.10;43.50;;;;;;5086958;28;20147;-60
2022/04/24 11:30:32;;;;;;;1.00;1.00;;;20.20;42.70;;;;;;5099393;28;20395;-59
2022/04/24 11:33:08;;;;;;;1.05;0.98;;;20.10;42.40;;;;;;5096255;28;20144;-60
2022/04/24 11:35:41;;;;;;;1.15;1.05;;;20.10;43.10;;;;;;5089833;28;20394;-59
2022/04/24 11:38:12;;;;;;;0.98;0.85;;;20.10;42.60;;;;;;5097049;28;20081;-59
2022/04/24 11:40:48;;;;;;;1.40;1.20;;;20.20;42.10;;;;;;5091414;28;20027;-59
2022/04/24 11:43:16;;;;;;;1.65;1.30;;;20.30;41.50;;;;;;5095053;28;20015;-58
2022/04/24 11:51:18;;;;;;;0.95;0.88;;;20.60;41.30;;;;;;5097410;28;20042;-66
2022/04/24 11:53:44;;;;;;;1.13;1.08;;;20.70;41.20;;;;;;5096650;28;20596;-66
2022/04/24 11:56:20;;;;;;;3.45;1.40;;;20.80;40.70;;;;;;5102836;28;20044;-66
2022/04/24 11:58:47;;;;;;;1.50;1.35;;;20.90;40.80;;;;;;5104224;28;20052;-60
2022/04/24 12:01:13;;;;;;;2.10;1.35;;;21.00;40.50;;;;;;5107277;28;20451;-60
2022/04/24 12:03:43;;;;;;;1.48;1.00;;;21.00;40.30;;;;;;5093831;28;20043;-60
2022/04/24 12:06:13;;;;;;;1.02;0.88;;;21.00;39.90;;;;;;5104486;28;20603;-60
2022/04/24 12:08:38;;;;;;;1.10;1.00;;;20.90;40.00;;;;;;5106956;28;20103;-60
2022/04/24 12:11:04;;;;;;;5.50;1.13;;;21.00;40.10;;;;;;5107722;28;20074;-60
2022/04/24 12:13:32;;;;;;;2.15;1.00;;;20.90;39.80;;;;;;5106502;28;20401;-60
2022/04/24 12:15:58;;;;;;;1.13;0.90;;;20.90;40.30;;;;;;5111969;28;20463;-60
2022/04/24 12:18:24;;;;;;;1.13;1.00;;;21.10;40.60;;;;;;5111918;28;20183;-60
2022/04/24 12:20:51;;;;;;;1.80;1.13;;;21.20;39.80;;;;;;5113029;28;20028;-60
2022/04/24 12:23:18;;;;;;;2.60;1.70;;;21.10;39.60;;;;;;5100515;27;20051;-60
2022/04/24 12:25:49;;;;;;;1.05;0.95;;;21.00;39.80;;;;;;5102830;28;20019;-60
2022/04/24 12:28:37;;;;;;;1.10;1.00;;;20.90;39.80;;;;;;5113245;27;20071;-60
2022/04/24 12:31:04;;;;;;;1.23;1.05;;;20.70;40.10;;;;;;5101709;28;20102;-60
2022/04/24 12:33:31;;;;;;;1.35;1.10;;;20.80;40.20;;;;;;5093611;28;20479;-60
2022/04/24 12:36:13;;;;;;;1.13;1.02;;;21.10;39.60;;;;;;5091576;28;20031;-60
2022/04/24 12:39:00;;;;;;;1.20;1.10;;;21.40;39.10;;;;;;5107106;27;20027;-60
2022/04/24 12:41:28;;;;;;;1.20;1.10;;;21.50;38.30;;;;;;5102097;27;20038;-60
2022/04/24 12:44:05;;;;;;;3.58;1.30;;;21.20;38.00;;;;;;5100472;28;20608;-60
2022/04/24 12:46:31;;;;;;;1.13;1.02;;;21.00;38.10;;;;;;5100507;28;20143;-60
2022/04/24 12:48:58;;;;;;;2.08;1.25;;;20.90;38.30;;;;;;5106939;28;20028;-60
2022/04/24 12:51:25;;;;;;;1.30;1.20;;;20.90;38.50;;;;;;5097806;28;20032;-61
2022/04/24 12:53:52;;;;;;;1.45;0.93;;;20.90;38.40;;;;;;5109534;28;20317;-60
2022/04/24 12:56:18;;;;;;;0.90;0.90;;;20.90;38.20;;;;;;5107243;28;20047;-60
2022/04/24 12:58:45;;;;;;;1.48;0.98;;;20.90;38.30;;;;;;5105440;28;20039;-60
2022/04/24 13:01:12;;;;;;;1.02;0.93;;;20.90;38.10;;;;;;5094176;28;20024;-60